Time;durP1;ratioP1;P1;durP2;ratioP2;P2;SDS_P1;SDS_P2;PMS_P1;PMS_P2;Temp;Humidity;BMP_temperature;BMP_pressure;BME280_temperature;BME280_humidity;BME280_pressure;Samples;Min_cycle;Max_cycle;Signal;HPM_P1;HPM_P2
2021/11/10 06:38:12;;;;;;;54.55;35.58;;;;;;;-1.78;87.68;99890.86;1871615;76;27929;-57
2021/11/10 06:40:40;;;;;;;35.43;27.67;;;;;;;-1.69;87.56;99899.06;1827764;78;20896;-63
2021/11/10 06:43:07;;;;;;;17.45;11.97;;;;;;;-1.54;87.34;99901.34;1827725;78;21103;-60
2021/11/10 06:45:33;;;;;;;16.15;11.48;;;;;;;-1.37;86.80;99905.56;1825220;77;21282;-58
2021/11/10 06:48:00;;;;;;;21.97;14.95;;;;;;;-1.19;86.78;99908.48;1813040;78;20872;-58
2021/11/10 06:50:27;;;;;;;22.22;14.87;;;;;;;-1.03;86.22;99911.06;1827815;78;21439;-59
2021/11/10 06:52:55;;;;;;;22.37;13.05;;;;;;;-0.88;86.02;99911.52;1817572;77;20990;-62
2021/11/10 06:55:21;;;;;;;17.17;11.25;;;;;;;-0.71;85.52;99907.00;1813248;78;21669;-59
2021/11/10 06:57:48;;;;;;;15.23;10.60;;;;;;;-0.57;84.95;99908.91;1816421;77;20959;-61
2021/11/10 07:00:16;;;;;;;12.93;9.05;;;;;;;-0.45;84.37;99914.59;1801087;77;20919;-62
2021/11/10 07:02:43;;;;;;;19.30;11.30;;;;;;;-0.34;83.92;99904.48;1774052;80;21423;-61
2021/11/10 07:05:10;;;;;;;15.43;10.75;;;;;;;-0.22;83.68;99913.62;1759899;81;20897;-60
2021/11/10 07:07:42;;;;;;;15.13;9.83;;;;;;;-0.08;83.21;99918.14;1760897;81;21169;-62
2021/11/10 07:10:10;;;;;;;16.25;10.13;;;;;;;0.03;82.65;99916.06;1785589;80;20844;-58
2021/11/10 07:12:38;;;;;;;14.05;9.10;;;;;;;0.12;82.00;99913.72;1773600;79;20936;-59
2021/11/10 07:15:07;;;;;;;13.78;9.45;;;;;;;0.25;81.76;99920.52;1769330;79;20982;-59
2021/11/10 07:17:34;;;;;;;14.03;8.48;;;;;;;0.34;81.27;99916.81;1760225;79;21621;-60
2021/11/10 07:20:00;;;;;;;11.03;8.35;;;;;;;0.43;80.57;99922.33;1754712;81;21255;-60
2021/11/10 07:22:29;;;;;;;13.20;8.95;;;;;;;0.52;80.31;99916.80;1777890;80;20884;-61
2021/11/10 07:24:56;;;;;;;12.20;7.22;;;;;;;0.62;79.14;99915.22;1785680;80;20928;-58
2021/11/10 07:27:23;;;;;;;15.78;9.70;;;;;;;0.69;78.48;99919.61;1785851;80;20896;-60
2021/11/10 07:29:52;;;;;;;12.07;8.95;;;;;;;0.75;78.22;99923.35;1785775;80;21353;-58
2021/11/10 07:32:19;;;;;;;11.75;7.53;;;;;;;0.81;77.69;99922.61;1785737;80;21133;-59
2021/11/10 07:34:46;;;;;;;15.60;8.78;;;;;;;0.86;77.23;99908.39;1785335;80;20983;-57
2021/11/10 07:37:13;;;;;;;13.90;7.90;;;;;;;0.95;77.00;99911.25;1769591;80;20920;-58
2021/11/10 07:39:42;;;;;;;11.35;8.18;;;;;;;1.01;76.35;99912.34;1780478;80;21479;-57
2021/11/10 07:42:10;;;;;;;12.18;7.75;;;;;;;1.06;76.11;99913.95;1780297;80;20952;-58
2021/11/10 07:44:39;;;;;;;10.35;7.67;;;;;;;1.15;76.35;99906.24;1766555;80;21403;-60
2021/11/10 07:47:17;;;;;;;14.78;9.73;;;;;;;1.27;75.79;99906.89;1765926;80;20916;-60
2021/11/10 07:49:44;;;;;;;17.73;9.28;;;;;;;1.35;75.17;99898.88;1779869;80;21019;-57
2021/11/10 07:52:13;;;;;;;18.55;10.63;;;;;;;1.46;74.79;99900.73;1765455;80;21324;-58
2021/11/10 07:54:40;;;;;;;19.48;11.90;;;;;;;1.57;74.09;99898.92;1780234;80;20849;-60
2021/11/10 07:57:07;;;;;;;17.95;12.43;;;;;;;1.64;74.00;99905.09;1779635;80;21127;-59
2021/11/10 07:59:33;;;;;;;22.40;14.47;;;;;;;1.74;73.63;99908.27;1779876;80;20885;-57
2021/11/10 08:02:01;;;;;;;15.90;11.60;;;;;;;1.83;73.14;99909.77;1780027;80;20974;-57
2021/11/10 08:04:28;;;;;;;18.20;10.82;;;;;;;1.90;72.68;99906.69;1779691;80;21483;-59
2021/11/10 08:06:54;;;;;;;25.85;13.90;;;;;;;1.93;72.60;99916.90;1780065;80;20988;-59
2021/11/10 08:09:22;;;;;;;21.17;13.48;;;;;;;2.00;72.68;99915.14;1779951;80;21325;-59
2021/11/10 08:11:49;;;;;;;14.38;10.50;;;;;;;2.09;72.04;99924.58;1780103;80;20885;-59
2021/11/10 08:14:16;;;;;;;15.60;9.70;;;;;;;2.17;71.76;99928.92;1780145;80;21347;-62
2021/11/10 08:16:42;;;;;;;14.75;8.95;;;;;;;2.25;71.40;99932.24;1779947;80;20845;-59
2021/11/10 08:19:09;;;;;;;11.08;8.35;;;;;;;2.34;70.96;99928.45;1780048;80;20885;-60
2021/11/10 08:21:36;;;;;;;10.88;8.15;;;;;;;2.43;70.67;99929.95;1779638;80;21222;-61
2021/11/10 08:24:05;;;;;;;16.37;9.68;;;;;;;2.57;69.89;99932.19;1779158;80;20935;-61
2021/11/10 08:26:32;;;;;;;13.62;9.30;;;;;;;2.67;69.85;99933.50;1778472;80;21015;-61
2021/11/10 08:28:58;;;;;;;13.70;9.13;;;;;;;2.83;69.06;99928.41;1754872;80;21467;-58
2021/11/10 08:31:25;;;;;;;13.08;8.18;;;;;;;2.94;67.62;99928.39;1765547;80;20924;-61
2021/11/10 08:33:52;;;;;;;10.20;7.60;;;;;;;2.99;67.12;99927.31;1751105;80;21134;-59
2021/11/10 08:36:19;;;;;;;9.75;6.95;;;;;;;3.02;66.67;99934.34;1749120;82;21317;-62
2021/11/10 08:38:45;;;;;;;13.55;6.90;;;;;;;3.10;66.52;99924.11;1760514;81;20877;-59
2021/11/10 08:41:12;;;;;;;13.00;9.50;;;;;;;3.15;64.64;99940.23;1765548;81;20889;-61
2021/11/10 08:43:39;;;;;;;13.15;7.72;;;;;;;3.16;64.80;99935.22;1743398;82;20900;-59
2021/11/10 08:46:07;;;;;;;16.07;9.18;;;;;;;3.24;64.56;99932.43;1743444;82;21186;-58
2021/11/10 08:48:34;;;;;;;13.00;8.05;;;;;;;3.32;64.56;99933.60;1743408;82;21027;-55
2021/11/10 08:51:00;;;;;;;10.55;7.45;;;;;;;3.42;63.82;99940.66;1714597;82;20924;-58
2021/11/10 08:53:27;;;;;;;10.80;8.08;;;;;;;3.56;63.22;99929.09;1743556;82;20928;-58
2021/11/10 08:55:56;;;;;;;11.30;6.87;;;;;;;3.68;63.19;99924.86;1743403;82;21023;-58
2021/11/10 08:58:25;;;;;;;9.83;7.33;;;;;;;3.80;61.73;99921.95;1763916;81;21933;-60
2021/11/10 09:00:54;;;;;;;12.70;7.90;;;;;;;3.84;62.01;99921.84;1774125;81;20869;-58
2021/11/10 09:03:22;;;;;;;14.05;7.85;;;;;;;3.89;61.53;99914.11;1759780;81;20925;-57
2021/11/10 09:05:50;;;;;;;17.45;9.33;;;;;;;3.96;61.74;99912.30;1747937;80;20885;-61
2021/11/10 09:08:18;;;;;;;13.35;8.83;;;;;;;4.02;61.26;99917.31;1743205;82;20951;-57
2021/11/10 09:10:46;;;;;;;10.82;8.25;;;;;;;4.06;61.51;99916.70;1742170;82;21039;-63
2021/11/10 09:13:14;;;;;;;16.30;7.90;;;;;;;4.17;60.80;99918.46;1742330;82;20951;-60
2021/11/10 09:15:43;;;;;;;14.47;7.05;;;;;;;4.20;60.45;99911.41;1760288;81;20991;-57
2021/11/10 09:18:11;;;;;;;13.70;9.78;;;;;;;4.25;61.40;99913.77;1766528;80;21538;-57
2021/11/10 09:20:39;;;;;;;13.62;8.33;;;;;;;4.40;60.86;99913.57;1773428;80;20975;-58
2021/11/10 09:23:08;;;;;;;13.98;7.95;;;;;;;4.49;60.32;99913.16;1760483;80;21689;-59
2021/11/10 09:25:36;;;;;;;14.38;8.75;;;;;;;4.56;60.39;99912.66;1746236;80;21042;-62
2021/11/10 09:28:04;;;;;;;14.83;7.87;;;;;;;4.66;60.74;99902.41;1763895;80;21048;-57
